Earl Park, Indiana
Current Conditions -  °F | °C
As of 2:15 PM on Saturday 25 Oct 2014 (Local Time) from KRZL Reporting Station
Clear Clear  
Wind Chill: 70°   Ceiling: Unl
Heat Index: 70°   Visibility: 10mi
Dew Point: 54°   Wind: 13mph
Humidity: 56%   Direction: 300°WNW
Pressure: 29.95"   Gusts: 20mph
Location:  40.68°N, 87.41°W
Report Text: KRZL 251815Z AUTO 30011G17KT 10SM CLR 21/12 A2995 RMK AO2
Loading
Personal Weather Stations






























Interactive Weather Map
Tropical Storm Tracking
New forecast layout! Learn more

10-Day Weather Forecast

Advertisements
Track Severe Weather on mobile